Gilman, Iowa
Current Conditions -  °F | °C
As of 1:55 AM on Saturday 25 Oct 2014 (Local Time) from KGGI Reporting Station
Moderate Fog Moderate Fog  
Wind Chill: 51°   Ceiling: 200
Heat Index: 51°   Visibility: 0.25mi
Dew Point: 51°   Wind: 5mph
Humidity: 98%   Direction: 310°NW
Pressure: 29.99"   Gusts: NA
Location:  41.88°N, 92.79°W
Report Text: KGGI 250655Z AUTO 31004KT 1/4SM FG VV002 11/11 A2999 RMK AO2 T01080105
Loading
Personal Weather Stations






























Interactive Weather Map
Tropical Storm Tracking
New forecast layout! Learn more

10-Day Weather Forecast

Advertisements
Track Severe Weather on mobile